Time;durP1;ratioP1;P1;durP2;ratioP2;P2;SDS_P1;SDS_P2;PMS_P1;PMS_P2;Temp;Humidity;BMP_temperature;BMP_pressure;BME280_temperature;BME280_humidity;BME280_pressure;Samples;Min_cycle;Max_cycle;Signal;HPM_P1;HPM_P2
2021/10/04 00:01:05;;;;;;;1.25;0.30;;;;;;;13.20;100.00;100313.91;5051326;28;20048;-52
2021/10/04 00:03:33;;;;;;;0.63;0.40;;;;;;;13.16;100.00;100310.56;5049351;28;20118;-54
2021/10/04 00:05:59;;;;;;;0.52;0.30;;;;;;;13.17;100.00;100312.28;5056324;28;20433;-52
2021/10/04 00:08:26;;;;;;;0.47;0.30;;;;;;;13.09;100.00;100310.97;5061915;28;20548;-52
2021/10/04 00:10:53;;;;;;;1.00;0.40;;;;;;;13.21;100.00;100327.13;5059259;28;20044;-53
2021/10/04 00:13:21;;;;;;;0.52;0.28;;;;;;;13.24;100.00;100329.56;5052191;28;20041;-53
2021/10/04 00:15:47;;;;;;;1.23;0.20;;;;;;;13.23;100.00;100333.19;5060768;28;20063;-52
2021/10/04 00:18:14;;;;;;;0.35;0.30;;;;;;;13.10;100.00;100329.50;5057191;28;20044;-53
2021/10/04 00:20:40;;;;;;;0.70;0.38;;;;;;;13.23;100.00;100350.94;5061080;28;20513;-53
2021/10/04 00:23:07;;;;;;;0.93;0.32;;;;;;;13.23;100.00;100349.13;5061855;28;20052;-52
2021/10/04 00:25:34;;;;;;;1.00;0.20;;;;;;;13.23;100.00;100342.97;5059519;28;20044;-52
2021/10/04 00:28:00;;;;;;;0.20;0.13;;;;;;;13.18;100.00;100348.56;5054137;28;20044;-53
2021/10/04 00:30:27;;;;;;;0.88;0.30;;;;;;;13.18;100.00;100361.00;5052282;28;20398;-53
2021/10/04 00:32:54;;;;;;;0.55;0.20;;;;;;;13.19;99.61;100365.38;5063146;28;20529;-52
2021/10/04 00:35:23;;;;;;;0.32;0.20;;;;;;;13.20;100.00;100369.75;5047290;28;20051;-51
2021/10/04 00:37:51;;;;;;;0.40;0.20;;;;;;;13.19;100.00;100374.22;5056755;28;20045;-53
2021/10/04 00:40:22;;;;;;;1.33;0.20;;;;;;;13.29;96.44;100383.34;5066466;28;20048;-52
2021/10/04 00:42:50;;;;;;;0.20;0.20;;;;;;;13.29;97.76;100387.81;5060837;28;20075;-51
2021/10/04 00:45:18;;;;;;;1.13;0.30;;;;;;;13.29;98.10;100386.00;5067149;28;20045;-53
2021/10/04 00:47:45;;;;;;;0.63;0.20;;;;;;;13.27;98.18;100384.38;5063768;28;20051;-52
2021/10/04 00:50:12;;;;;;;0.50;0.22;;;;;;;13.28;99.24;100380.78;5065268;28;20401;-53
2021/10/04 00:52:39;;;;;;;0.43;0.20;;;;;;;13.33;96.43;100376.91;5065537;28;20055;-52
2021/10/04 00:55:07;;;;;;;0.77;0.20;;;;;;;13.32;96.58;100377.88;5057299;28;20055;-52
2021/10/04 00:57:35;;;;;;;1.05;0.30;;;;;;;13.30;97.43;100371.78;5069351;28;20045;-52
2021/10/04 01:00:04;;;;;;;0.98;0.22;;;;;;;13.36;96.31;100369.72;5062264;28;20434;-53
2021/10/04 01:02:30;;;;;;;0.22;0.22;;;;;;;13.37;96.22;100361.66;5060771;28;20505;-52
2021/10/04 01:04:57;;;;;;;0.35;0.17;;;;;;;13.48;93.99;100375.16;5045933;28;20060;-52
2021/10/04 01:07:23;;;;;;;0.20;0.20;;;;;;;13.56;93.08;100372.88;5059410;28;20056;-52
2021/10/04 01:09:50;;;;;;;0.68;0.20;;;;;;;13.55;94.03;100365.00;5058941;28;20299;-53
2021/10/04 01:12:17;;;;;;;0.55;0.20;;;;;;;13.54;94.82;100350.81;5060351;28;20060;-53
2021/10/04 01:14:44;;;;;;;1.15;0.20;;;;;;;13.52;95.41;100347.44;5058803;28;20041;-52
2021/10/04 01:17:10;;;;;;;0.10;0.10;;;;;;;13.52;95.68;100349.25;5050978;28;20441;-53
2021/10/04 01:19:39;;;;;;;0.40;0.20;;;;;;;13.54;95.99;100357.94;5057921;28;20127;-53
2021/10/04 01:22:07;;;;;;;0.28;0.28;;;;;;;13.56;95.78;100358.72;5052576;28;20041;-51
2021/10/04 01:24:33;;;;;;;1.70;0.30;;;;;;;13.58;94.35;100356.84;5060584;28;20505;-52
2021/10/04 01:27:00;;;;;;;1.15;0.38;;;;;;;13.60;94.64;100366.44;5066036;28;20514;-53
2021/10/04 01:29:26;;;;;;;0.63;0.22;;;;;;;13.62;94.63;100356.56;5061988;28;20052;-54
2021/10/04 01:31:52;;;;;;;1.58;0.30;;;;;;;13.54;94.74;100334.88;5060833;28;20056;-53
2021/10/04 01:34:19;;;;;;;0.52;0.30;;;;;;;13.65;95.01;100350.22;5066358;28;20049;-52
2021/10/04 01:36:46;;;;;;;0.47;0.38;;;;;;;13.59;94.98;100335.47;5065337;28;20060;-51
2021/10/04 01:39:12;;;;;;;1.38;0.30;;;;;;;13.47;94.70;100327.38;5052665;28;20051;-52
2021/10/04 01:41:38;;;;;;;0.95;0.40;;;;;;;13.57;94.76;100332.03;5063808;28;20039;-53
2021/10/04 01:44:05;;;;;;;0.40;0.40;;;;;;;13.53;94.57;100330.53;5060348;28;20051;-52
2021/10/04 01:46:32;;;;;;;0.90;0.30;;;;;;;13.58;94.36;100331.09;5065664;28;20352;-54
2021/10/04 01:48:58;;;;;;;0.47;0.22;;;;;;;13.57;94.35;100332.03;5061499;28;20052;-53
2021/10/04 01:51:25;;;;;;;1.60;0.28;;;;;;;13.56;94.25;100329.47;5063566;28;20345;-52
2021/10/04 01:53:51;;;;;;;0.30;0.30;;;;;;;13.54;94.66;100348.16;5065316;28;20055;-52
2021/10/04 01:56:18;;;;;;;1.77;0.50;;;;;;;13.54;95.07;100345.50;5066218;28;20044;-54
2021/10/04 01:58:44;;;;;;;0.77;0.30;;;;;;;13.54;94.86;100329.53;5064637;28;20045;-53
2021/10/04 02:01:11;;;;;;;0.50;0.40;;;;;;;13.53;94.24;100314.56;5063448;28;20049;-52
2021/10/04 02:03:38;;;;;;;0.30;0.30;;;;;;;13.52;94.77;100326.16;5057314;28;20502;-53
2021/10/04 02:06:05;;;;;;;0.70;0.30;;;;;;;13.54;94.98;100342.84;5055649;28;20048;-54
2021/10/04 02:08:32;;;;;;;0.50;0.32;;;;;;;13.56;94.12;100353.41;5058051;28;20269;-53
2021/10/04 02:10:59;;;;;;;0.68;0.40;;;;;;;13.55;94.47;100363.19;5048561;28;20048;-52
2021/10/04 02:13:25;;;;;;;1.45;0.30;;;;;;;13.54;94.36;100366.78;5061652;28;20527;-53
2021/10/04 02:15:52;;;;;;;1.15;0.32;;;;;;;13.56;94.06;100372.03;5053796;28;20041;-53
2021/10/04 02:18:18;;;;;;;1.20;0.38;;;;;;;13.57;93.77;100363.97;5061682;28;20074;-54
2021/10/04 02:20:47;;;;;;;0.80;0.60;;;;;;;13.53;94.28;100375.75;5059583;28;20045;-53
2021/10/04 02:23:15;;;;;;;0.60;0.52;;;;;;;13.54;94.70;100380.09;5062836;28;20051;-52
2021/10/04 02:25:46;;;;;;;0.70;0.55;;;;;;;13.53;94.54;100373.09;5050640;28;20037;-53
2021/10/04 02:28:15;;;;;;;1.30;0.60;;;;;;;13.51;95.31;100374.97;5055754;28;20051;-53
2021/10/04 02:30:42;;;;;;;2.08;0.50;;;;;;;13.52;95.28;100381.16;5060297;28;20037;-54
2021/10/04 02:33:09;;;;;;;0.80;0.80;;;;;;;13.50;95.34;100377.72;5055729;28;20047;-54
2021/10/04 02:35:37;;;;;;;1.10;0.80;;;;;;;13.47;96.01;100370.78;5049024;28;20053;-52
2021/10/04 02:38:04;;;;;;;4.57;0.63;;;;;;;13.46;96.21;100381.50;5044960;28;20052;-54
2021/10/04 02:40:31;;;;;;;0.55;0.50;;;;;;;13.43;96.50;100374.56;5053072;28;20413;-53
2021/10/04 02:42:59;;;;;;;1.70;0.73;;;;;;;13.44;96.93;100380.75;5053928;28;20051;-52
2021/10/04 02:45:26;;;;;;;1.75;0.73;;;;;;;13.45;96.69;100378.00;5048951;28;20501;-52
2021/10/04 02:47:56;;;;;;;0.60;0.60;;;;;;;13.46;96.06;100377.06;5059190;28;20044;-52
2021/10/04 02:50:24;;;;;;;;;;;;;;;13.44;96.86;100372.75;5057461;28;20055;-52
2021/10/04 02:52:51;;;;;;;0.65;0.65;;;;;;;13.43;96.76;100371.91;5047482;28;19928;-53
2021/10/04 02:55:18;;;;;;;1.70;0.70;;;;;;;13.42;96.83;100375.50;5058648;28;20044;-53
2021/10/04 02:57:44;;;;;;;0.63;0.63;;;;;;;13.40;96.96;100381.84;5065144;28;20048;-53
2021/10/04 03:00:30;;;;;;;0.93;0.65;;;;;;;13.37;96.95;100366.09;5049480;28;20044;-53
2021/10/04 03:02:56;;;;;;;0.95;0.70;;;;;;;13.36;97.09;100365.25;5042621;28;20517;-53
2021/10/04 03:05:23;;;;;;;1.00;0.80;;;;;;;13.39;96.62;100365.03;5055090;28;20176;-53
2021/10/04 03:07:50;;;;;;;2.13;0.70;;;;;;;13.39;97.00;100365.03;5044226;28;20502;-53
2021/10/04 03:10:16;;;;;;;0.70;0.60;;;;;;;13.38;96.88;100362.50;5046222;28;20045;-53
2021/10/04 03:12:43;;;;;;;1.48;0.77;;;;;;;13.36;96.98;100373.22;5049556;28;20045;-53
2021/10/04 03:15:09;;;;;;;0.80;0.60;;;;;;;13.44;95.86;100394.91;5056169;28;20051;-52
2021/10/04 03:17:36;;;;;;;0.70;0.63;;;;;;;13.41;94.92;100389.75;5054008;28;20059;-54
2021/10/04 03:20:04;;;;;;;0.73;0.50;;;;;;;13.40;95.41;100392.50;5054369;28;20514;-54
2021/10/04 03:22:30;;;;;;;1.58;0.70;;;;;;;13.38;95.92;100397.06;5054969;28;20052;-52
2021/10/04 03:24:57;;;;;;;1.10;0.60;;;;;;;13.36;95.89;100396.31;5054598;28;20269;-53
2021/10/04 03:27:23;;;;;;;1.23;0.82;;;;;;;13.34;95.51;100389.28;5049039;28;20049;-52
2021/10/04 03:29:50;;;;;;;1.20;1.00;;;;;;;13.39;96.01;100402.28;5063762;28;20052;-52
2021/10/04 03:32:17;;;;;;;1.88;0.95;;;;;;;13.38;95.94;100407.72;5052087;28;20357;-52
2021/10/04 03:34:43;;;;;;;1.35;1.10;;;;;;;13.46;95.60;100427.59;5063532;28;20040;-52
2021/10/04 03:37:10;;;;;;;2.22;1.00;;;;;;;13.42;95.45;100417.22;5052596;28;20049;-52
2021/10/04 03:39:36;;;;;;;3.85;1.10;;;;;;;13.43;95.26;100418.94;5053692;28;20041;-51
2021/10/04 03:42:03;;;;;;;2.88;1.10;;;;;;;13.39;95.52;100415.56;5049484;28;20048;-53
2021/10/04 03:44:29;;;;;;;1.40;1.30;;;;;;;13.36;95.82;100415.78;5051831;28;20431;-52
2021/10/04 03:46:55;;;;;;;1.88;1.40;;;;;;;13.33;95.42;100419.47;5064414;28;20794;-53
2021/10/04 03:49:22;;;;;;;1.73;1.63;;;;;;;13.31;95.64;100432.00;5063665;28;20068;-52
2021/10/04 03:51:48;;;;;;;2.08;1.52;;;;;;;13.29;95.75;100433.88;5061931;28;20394;-51
2021/10/04 03:54:15;;;;;;;2.28;2.08;;;;;;;13.20;96.08;100420.28;5063537;28;20506;-52
2021/10/04 03:56:42;;;;;;;2.00;1.90;;;;;;;13.28;96.67;100439.28;5059343;28;20063;-52
2021/10/04 03:59:09;;;;;;;2.08;1.90;;;;;;;13.35;96.78;100453.97;5061666;28;20417;-53
2021/10/04 04:01:35;;;;;;;2.50;2.30;;;;;;;13.31;97.36;100461.25;5063631;28;20045;-51
2021/10/04 04:04:02;;;;;;;3.50;2.67;;;;;;;13.27;97.49;100461.50;5064013;28;20220;-53
2021/10/04 04:06:29;;;;;;;3.38;2.47;;;;;;;13.20;98.41;100457.50;5061302;28;20048;-52
2021/10/04 04:08:55;;;;;;;2.85;2.65;;;;;;;13.11;99.15;100457.97;5061703;28;20040;-52
2021/10/04 04:11:22;;;;;;;2.97;2.63;;;;;;;13.08;100.00;100456.34;5063669;28;20040;-53
2021/10/04 04:13:48;;;;;;;3.55;2.78;;;;;;;13.02;100.00;100454.03;5058140;28;20040;-53
2021/10/04 04:16:15;;;;;;;6.25;3.30;;;;;;;12.98;100.00;100458.66;5052220;28;20801;-53
2021/10/04 04:18:42;;;;;;;3.22;2.92;;;;;;;12.94;100.00;100451.78;5060388;28;20047;-54
2021/10/04 04:21:09;;;;;;;4.38;3.20;;;;;;;12.95;100.00;100456.16;5066075;28;20047;-52
2021/10/04 04:23:36;;;;;;;3.28;2.97;;;;;;;12.91;100.00;100448.44;5059359;28;20113;-53
2021/10/04 04:26:03;;;;;;;7.82;3.88;;;;;;;12.89;100.00;100453.88;5067450;28;20045;-52
2021/10/04 04:28:29;;;;;;;5.07;3.30;;;;;;;12.77;100.00;100443.03;5057284;28;20307;-53
2021/10/04 04:30:56;;;;;;;4.32;3.35;;;;;;;12.86;100.00;100455.84;5061603;28;20387;-53
2021/10/04 04:33:22;;;;;;;4.70;3.58;;;;;;;12.84;100.00;100457.72;5060005;28;20513;-53
2021/10/04 04:35:49;;;;;;;4.78;3.85;;;;;;;12.82;100.00;100460.44;5066031;28;20409;-52
2021/10/04 04:38:15;;;;;;;7.22;4.60;;;;;;;12.81;100.00;100457.88;5060483;28;20067;-51
2021/10/04 04:40:42;;;;;;;8.13;4.60;;;;;;;12.79;100.00;100460.63;5060556;28;20040;-54
2021/10/04 04:43:09;;;;;;;4.97;4.20;;;;;;;12.78;100.00;100464.22;5065448;28;20418;-52
2021/10/04 04:45:36;;;;;;;5.45;4.60;;;;;;;12.78;100.00;100450.06;5064880;28;20510;-54
2021/10/04 04:48:02;;;;;;;6.88;4.40;;;;;;;12.78;100.00;100466.00;5064175;28;20041;-53
2021/10/04 04:50:29;;;;;;;6.20;4.72;;;;;;;12.76;100.00;100466.09;5060236;28;20056;-52
2021/10/04 04:52:56;;;;;;;8.10;4.47;;;;;;;12.75;100.00;100469.69;5063477;28;20049;-52
2021/10/04 04:55:22;;;;;;;7.43;5.07;;;;;;;12.79;100.00;100465.94;5059163;28;20048;-53
2021/10/04 04:57:49;;;;;;;5.30;4.78;;;;;;;12.82;100.00;100470.22;5055493;28;20052;-52
2021/10/04 05:00:16;;;;;;;8.00;5.40;;;;;;;12.83;100.00;100472.81;5065412;28;20497;-51
2021/10/04 05:02:44;;;;;;;7.80;5.70;;;;;;;12.82;100.00;100481.72;5060664;28;20041;-52
2021/10/04 05:05:13;;;;;;;8.23;5.82;;;;;;;12.83;100.00;100488.75;5063109;28;20076;-54
2021/10/04 05:07:39;;;;;;;8.55;6.20;;;;;;;12.83;100.00;100488.75;5065440;28;20044;-53
2021/10/04 05:10:07;;;;;;;9.15;6.90;;;;;;;12.81;100.00;100490.63;5064827;28;20047;-53
2021/10/04 05:12:34;;;;;;;10.18;6.70;;;;;;;12.84;100.00;100490.47;5054356;28;20502;-51
2021/10/04 05:15:01;;;;;;;8.02;6.35;;;;;;;12.80;100.00;100490.72;5059358;28;20082;-53
2021/10/04 05:17:28;;;;;;;10.30;6.93;;;;;;;12.78;100.00;100504.06;5063141;28;20040;-53
2021/10/04 05:19:54;;;;;;;9.75;6.57;;;;;;;12.78;100.00;100504.06;5065122;28;20048;-52
2021/10/04 05:22:21;;;;;;;10.27;7.53;;;;;;;12.79;100.00;100510.25;5066091;28;20053;-52
2021/10/04 05:24:47;;;;;;;9.73;6.85;;;;;;;12.73;100.00;100519.44;5065053;28;20571;-55
2021/10/04 05:27:15;;;;;;;8.05;6.97;;;;;;;12.77;100.00;100536.03;5057714;28;20439;-52
2021/10/04 05:29:42;;;;;;;11.25;8.10;;;;;;;12.64;100.00;100511.94;5064811;28;20041;-52
2021/10/04 05:32:08;;;;;;;11.27;8.15;;;;;;;12.71;100.00;100539.91;5064426;28;20523;-52
2021/10/04 05:34:35;;;;;;;9.77;7.82;;;;;;;12.66;100.00;100528.66;5065042;28;20350;-52
2021/10/04 05:37:02;;;;;;;9.35;7.22;;;;;;;12.68;100.00;100541.84;5055578;28;20512;-53
2021/10/04 05:39:28;;;;;;;14.55;8.40;;;;;;;12.69;100.00;100552.41;5065541;28;20049;-51
2021/10/04 05:41:55;;;;;;;13.25;8.35;;;;;;;12.69;100.00;100555.06;5064223;28;20048;-52
2021/10/04 05:44:21;;;;;;;9.85;7.43;;;;;;;12.73;100.00;100555.78;5055097;28;20049;-53
2021/10/04 05:46:48;;;;;;;10.40;7.88;;;;;;;12.78;100.00;100559.00;5060365;28;20052;-52
2021/10/04 05:49:14;;;;;;;10.88;7.85;;;;;;;12.77;100.00;100568.78;5061084;28;20579;-52
2021/10/04 05:51:41;;;;;;;10.85;7.72;;;;;;;12.75;100.00;100573.31;5061754;28;20049;-52
2021/10/04 05:54:07;;;;;;;11.38;7.93;;;;;;;12.74;100.00;100578.75;5054007;28;20045;-52
2021/10/04 05:56:34;;;;;;;12.52;7.63;;;;;;;12.72;100.00;100575.31;5062904;28;20044;-54
2021/10/04 05:59:00;;;;;;;11.45;8.27;;;;;;;12.69;100.00;100578.13;5057346;28;20041;-51
2021/10/04 06:01:27;;;;;;;12.38;8.13;;;;;;;12.68;100.00;100579.06;5058567;28;20516;-52
2021/10/04 06:03:53;;;;;;;12.30;8.27;;;;;;;12.70;100.00;100587.81;5050020;28;20079;-53
2021/10/04 06:06:20;;;;;;;12.13;8.27;;;;;;;12.67;100.00;100588.81;5062946;28;20040;-53
2021/10/04 06:08:46;;;;;;;12.98;8.80;;;;;;;12.68;100.00;100585.22;5062831;28;20486;-54
2021/10/04 06:11:13;;;;;;;15.77;9.98;;;;;;;12.67;100.00;100569.38;5056364;28;20044;-53
2021/10/04 06:13:39;;;;;;;13.32;9.65;;;;;;;12.64;100.00;100563.28;5046555;28;20068;-53
2021/10/04 06:16:06;;;;;;;16.33;10.70;;;;;;;12.62;100.00;100572.25;5062253;28;20458;-53
2021/10/04 06:18:33;;;;;;;12.45;9.63;;;;;;;12.62;100.00;100585.53;5050409;28;20060;-53
2021/10/04 06:20:59;;;;;;;14.88;10.63;;;;;;;12.68;100.00;100601.16;5048665;28;20044;-52
2021/10/04 06:23:26;;;;;;;15.48;11.15;;;;;;;12.70;100.00;100609.06;5056237;28;20044;-53
2021/10/04 06:25:52;;;;;;;16.30;11.27;;;;;;;12.69;100.00;100613.53;5062152;28;20048;-54
2021/10/04 06:28:19;;;;;;;15.55;11.30;;;;;;;12.73;100.00;100627.50;5059104;28;20048;-54
2021/10/04 06:30:45;;;;;;;15.48;11.70;;;;;;;12.77;100.00;100629.91;5061878;28;20048;-53
2021/10/04 06:33:12;;;;;;;16.30;11.25;;;;;;;12.80;100.00;100626.22;5054132;28;20044;-52
2021/10/04 06:35:39;;;;;;;18.00;11.57;;;;;;;12.79;100.00;100640.47;5056787;28;20254;-52
2021/10/04 06:38:05;;;;;;;15.88;12.07;;;;;;;12.74;100.00;100630.09;5052179;28;20044;-52
2021/10/04 06:40:32;;;;;;;14.80;11.77;;;;;;;12.78;100.00;100631.63;5048704;28;20049;-52
2021/10/04 06:42:58;;;;;;;16.25;12.30;;;;;;;12.79;100.00;100630.69;5054292;28;20048;-52
2021/10/04 06:45:25;;;;;;;16.90;11.52;;;;;;;12.79;100.00;100646.63;5062028;28;20048;-54
2021/10/04 06:47:51;;;;;;;15.88;11.15;;;;;;;12.81;100.00;100654.53;5058415;28;20063;-52
2021/10/04 06:50:18;;;;;;;15.32;11.25;;;;;;;12.81;100.00;100655.38;5057690;28;20044;-54
2021/10/04 06:52:44;;;;;;;12.45;10.30;;;;;;;12.85;100.00;100659.63;5055829;28;20052;-52
2021/10/04 06:55:11;;;;;;;13.55;9.82;;;;;;;12.88;100.00;100678.06;5058598;28;20057;-51
2021/10/04 06:57:39;;;;;;;13.90;10.60;;;;;;;12.88;100.00;100667.44;5063862;28;20076;-52
2021/10/04 07:00:08;;;;;;;14.10;11.10;;;;;;;12.88;100.00;100651.50;5059191;28;20048;-50
2021/10/04 07:02:35;;;;;;;12.52;10.50;;;;;;;12.88;100.00;100666.56;5063221;28;20059;-52
2021/10/04 07:05:03;;;;;;;14.60;11.10;;;;;;;12.83;100.00;100666.81;5063632;28;20037;-53
2021/10/04 07:07:29;;;;;;;12.48;10.27;;;;;;;12.79;100.00;100654.59;5057287;28;20059;-52
2021/10/04 07:09:56;;;;;;;13.80;11.30;;;;;;;12.82;100.00;100658.91;5055340;28;20040;-52
2021/10/04 07:12:23;;;;;;;14.15;10.13;;;;;;;12.84;100.00;100668.53;5057555;28;20040;-51
2021/10/04 07:14:52;;;;;;;12.93;10.20;;;;;;;12.84;100.00;100659.69;5059235;28;20050;-51
2021/10/04 07:17:19;;;;;;;15.25;9.85;;;;;;;12.82;100.00;100665.09;5059931;28;20048;-51
2021/10/04 07:19:46;;;;;;;16.75;12.32;;;;;;;12.82;100.00;100654.47;5056437;28;20048;-51
2021/10/04 07:22:13;;;;;;;20.08;12.23;;;;;;;12.82;100.00;100635.00;5061676;28;20386;-51
2021/10/04 07:24:40;;;;;;;14.57;11.30;;;;;;;12.83;100.00;100621.63;5056416;28;20055;-53
2021/10/04 07:27:10;;;;;;;12.57;10.52;;;;;;;12.86;100.00;100610.84;5061853;28;20513;-53
2021/10/04 07:29:37;;;;;;;14.18;9.65;;;;;;;12.88;100.00;100614.28;5057660;28;20420;-53
2021/10/04 07:32:04;;;;;;;8.48;7.40;;;;;;;12.87;100.00;100625.00;5063192;28;20041;-53
2021/10/04 07:34:32;;;;;;;10.85;7.80;;;;;;;12.91;100.00;100658.41;5063352;28;20056;-53
2021/10/04 07:36:59;;;;;;;8.63;7.38;;;;;;;12.86;100.00;100664.00;5059676;28;20052;-54
2021/10/04 07:39:26;;;;;;;11.05;7.93;;;;;;;12.83;100.00;100665.94;5058468;28;20080;-53
2021/10/04 07:41:52;;;;;;;8.80;7.68;;;;;;;12.87;100.00;100668.38;5061352;28;20049;-53
2021/10/04 07:44:20;;;;;;;12.18;7.75;;;;;;;12.85;100.00;100666.72;5062020;28;20405;-53
2021/10/04 07:46:48;;;;;;;9.20;7.75;;;;;;;12.88;100.00;100683.38;5057051;28;20071;-52
2021/10/04 07:49:16;;;;;;;8.88;7.05;;;;;;;12.95;100.00;100695.41;5057728;28;20048;-51
2021/10/04 07:51:58;;;;;;;8.48;6.72;;;;;;;13.00;100.00;100700.47;5058403;28;20044;-56
2021/10/04 07:54:25;;;;;;;8.43;6.40;;;;;;;12.99;100.00;100712.91;5058216;28;20091;-54
2021/10/04 07:56:51;;;;;;;7.68;6.35;;;;;;;12.99;100.00;100725.34;5062310;28;20053;-54
2021/10/04 07:59:18;;;;;;;10.90;7.28;;;;;;;12.95;100.00;100718.47;5062091;28;20044;-53
2021/10/04 08:01:45;;;;;;;10.43;7.40;;;;;;;12.92;100.00;100730.09;5060192;28;20037;-53
2021/10/04 08:04:12;;;;;;;9.90;6.90;;;;;;;12.95;100.00;100737.94;5061560;28;20140;-51
2021/10/04 08:06:38;;;;;;;10.55;7.85;;;;;;;12.92;100.00;100743.41;5061935;28;20044;-51
2021/10/04 08:09:05;;;;;;;9.45;7.57;;;;;;;12.94;100.00;100728.22;5057490;28;20139;-52
2021/10/04 08:11:32;;;;;;;11.02;7.03;;;;;;;13.02;100.00;100732.31;5062368;28;20055;-52
2021/10/04 08:13:58;;;;;;;9.05;7.03;;;;;;;13.06;100.00;100729.41;5061467;28;20055;-53
2021/10/04 08:16:25;;;;;;;10.13;7.53;;;;;;;13.10;100.00;100724.78;5059703;28;20052;-51
2021/10/04 08:18:53;;;;;;;11.35;7.97;;;;;;;13.18;100.00;100728.81;5060523;28;20049;-52
2021/10/04 08:21:21;;;;;;;10.00;8.00;;;;;;;13.21;100.00;100718.00;5064741;28;20490;-52
2021/10/04 08:23:49;;;;;;;7.75;6.93;;;;;;;13.22;100.00;100708.25;5064430;28;20041;-52
2021/10/04 08:26:16;;;;;;;10.48;7.88;;;;;;;13.27;100.00;100706.19;5069211;28;20049;-52
2021/10/04 08:28:42;;;;;;;8.05;7.18;;;;;;;13.34;100.00;100703.13;5053248;28;20052;-52
2021/10/04 08:31:10;;;;;;;10.63;7.75;;;;;;;13.40;100.00;100701.91;5056472;28;20041;-52
2021/10/04 08:33:36;;;;;;;8.25;7.15;;;;;;;13.48;100.00;100704.19;5061213;28;20049;-51
2021/10/04 08:36:05;;;;;;;8.40;6.80;;;;;;;13.53;100.00;100705.66;5054486;28;20045;-51
2021/10/04 08:38:32;;;;;;;8.65;6.38;;;;;;;13.60;100.00;100708.81;5060236;28;20052;-53
2021/10/04 08:40:59;;;;;;;8.07;6.50;;;;;;;13.61;100.00;100698.09;5051999;28;20041;-53
2021/10/04 08:43:26;;;;;;;9.85;7.45;;;;;;;13.64;100.00;100697.94;5060809;28;20052;-51
2021/10/04 08:45:57;;;;;;;8.32;7.45;;;;;;;13.68;100.00;100701.31;5062788;28;20473;-52
2021/10/04 08:48:25;;;;;;;12.82;8.90;;;;;;;13.66;100.00;100685.41;5059866;28;20139;-51
2021/10/04 08:50:55;;;;;;;11.35;9.63;;;;;;;13.61;100.00;100678.63;5061850;28;20434;-51
2021/10/04 08:53:23;;;;;;;12.52;9.43;;;;;;;13.57;100.00;100682.38;5064277;28;20044;-52
2021/10/04 08:55:50;;;;;;;12.02;9.80;;;;;;;13.50;100.00;100691.66;5060789;28;20052;-52
2021/10/04 08:58:17;;;;;;;11.05;9.05;;;;;;;13.49;100.00;100688.13;5058899;28;20047;-52
2021/10/04 09:00:44;;;;;;;10.48;9.38;;;;;;;13.54;100.00;100691.38;5064345;28;20402;-52
2021/10/04 09:03:12;;;;;;;12.88;10.05;;;;;;;13.52;100.00;100695.09;5058596;28;20092;-54
2021/10/04 09:05:44;;;;;;;14.23;10.45;;;;;;;13.45;100.00;100701.69;5065429;28;20044;-52
2021/10/04 09:08:15;;;;;;;13.55;12.10;;;;;;;13.47;100.00;100705.13;5059919;28;20055;-54
2021/10/04 09:10:44;;;;;;;14.70;11.93;;;;;;;13.49;100.00;100709.41;5052352;28;20048;-54
2021/10/04 09:13:15;;;;;;;15.00;11.43;;;;;;;13.46;100.00;100716.69;5058358;28;20153;-54
2021/10/04 09:15:44;;;;;;;11.73;9.48;;;;;;;13.47;100.00;100719.28;5054172;28;20060;-52
2021/10/04 09:18:28;;;;;;;14.15;9.60;;;;;;;13.45;100.00;100714.97;5061731;28;20434;-52
2021/10/04 09:20:56;;;;;;;11.02;9.20;;;;;;;13.43;100.00;100708.88;5053349;28;20077;-52
2021/10/04 09:23:44;;;;;;;13.32;10.20;;;;;;;13.34;100.00;100703.13;5055955;28;20052;-52
2021/10/04 09:26:32;;;;;;;12.55;9.95;;;;;;;13.33;100.00;100705.88;5054297;28;20110;-53
2021/10/04 09:29:00;;;;;;;12.43;10.45;;;;;;;13.33;100.00;100705.88;5058094;28;20048;-54
2021/10/04 09:31:30;;;;;;;12.77;9.98;;;;;;;13.38;100.00;100714.44;5058334;28;20374;-52
2021/10/04 09:34:00;;;;;;;11.55;9.98;;;;;;;13.50;100.00;100721.78;5055597;28;20044;-52
2021/10/04 09:36:48;;;;;;;10.43;9.32;;;;;;;13.55;100.00;100727.69;5057530;28;20056;-52
2021/10/04 09:39:29;;;;;;;10.38;8.40;;;;;;;13.66;100.00;100724.47;5059150;28;20047;-52
2021/10/04 09:42:01;;;;;;;10.25;9.20;;;;;;;13.77;100.00;100715.88;5054963;28;20040;-53
2021/10/04 09:44:48;;;;;;;9.50;8.52;;;;;;;13.89;100.00;100723.19;5057701;28;20052;-53
2021/10/04 09:47:25;;;;;;;12.10;9.60;;;;;;;13.98;100.00;100722.69;5058469;28;20049;-53
2021/10/04 09:50:13;;;;;;;9.65;7.72;;;;;;;14.03;100.00;100732.13;5052556;28;20388;-53
2021/10/04 09:52:46;;;;;;;9.80;8.80;;;;;;;13.98;100.00;100726.22;5057549;28;20048;-51
2021/10/04 09:55:15;;;;;;;10.63;8.63;;;;;;;14.00;100.00;100723.47;5061807;28;20044;-53
2021/10/04 09:57:42;;;;;;;13.00;9.30;;;;;;;13.94;100.00;100734.44;5061198;28;20267;-52
2021/10/04 10:00:09;;;;;;;11.38;9.52;;;;;;;13.86;100.00;100731.34;5062973;28;20052;-53
2021/10/04 10:02:36;;;;;;;14.02;10.48;;;;;;;13.91;100.00;100726.63;5058584;28;20055;-53
2021/10/04 10:05:03;;;;;;;10.48;8.80;;;;;;;13.97;100.00;100729.81;5057220;28;20055;-52
2021/10/04 10:07:30;;;;;;;11.48;9.25;;;;;;;14.00;100.00;100724.34;5056546;28;20052;-53
2021/10/04 10:09:58;;;;;;;10.93;9.52;;;;;;;14.01;100.00;100722.50;5063111;28;20116;-52
2021/10/04 10:12:24;;;;;;;10.65;8.80;;;;;;;14.05;100.00;100716.06;5063450;28;20044;-52
2021/10/04 10:14:51;;;;;;;10.75;9.65;;;;;;;14.21;100.00;100724.06;5062966;28;20377;-52
2021/10/04 10:17:23;;;;;;;11.30;9.82;;;;;;;14.22;100.00;100718.63;5063003;28;20453;-53
2021/10/04 10:19:53;;;;;;;12.10;9.70;;;;;;;14.32;100.00;100727.00;5063231;28;20194;-55
2021/10/04 10:22:20;;;;;;;13.10;9.25;;;;;;;14.42;100.00;100724.66;5062813;28;20383;-54
2021/10/04 10:24:48;;;;;;;11.77;10.05;;;;;;;14.44;99.25;100723.66;5057526;28;20051;-52
2021/10/04 10:27:16;;;;;;;11.20;9.32;;;;;;;14.41;99.74;100729.16;5061587;28;20043;-53
2021/10/04 10:29:43;;;;;;;12.07;8.98;;;;;;;14.37;98.64;100723.09;5064566;28;20048;-52
2021/10/04 10:32:13;;;;;;;26.45;20.63;;;;;;;14.39;96.93;100720.34;5062910;28;20516;-51
2021/10/04 10:34:40;;;;;;;11.73;9.35;;;;;;;14.29;98.23;100724.50;5063340;28;20158;-52
2021/10/04 10:37:24;;;;;;;11.68;9.85;;;;;;;14.34;96.93;100725.91;5059363;28;20052;-52
2021/10/04 10:39:59;;;;;;;11.07;8.98;;;;;;;14.39;97.52;100715.88;5059015;28;20052;-54
2021/10/04 10:42:26;;;;;;;13.93;9.40;;;;;;;14.45;97.41;100712.03;5059541;28;20048;-52
2021/10/04 10:44:56;;;;;;;12.07;9.18;;;;;;;14.55;94.73;100710.53;5062906;28;20149;-52
2021/10/04 10:47:37;;;;;;;9.73;8.32;;;;;;;14.46;97.57;100704.91;5065099;28;20517;-53
2021/10/04 10:50:13;;;;;;;12.10;9.82;;;;;;;14.29;98.77;100698.72;5063245;28;20099;-53
2021/10/04 10:52:58;;;;;;;10.82;9.70;;;;;;;14.17;99.89;100710.03;5062975;28;20036;-52
2021/10/04 10:55:28;;;;;;;10.98;9.88;;;;;;;14.19;100.00;100713.47;5066133;28;20048;-52
2021/10/04 10:58:04;;;;;;;10.48;9.38;;;;;;;14.27;99.02;100716.59;5063354;28;20066;-51
2021/10/04 11:00:38;;;;;;;10.90;9.32;;;;;;;14.31;98.04;100723.47;5058146;28;20140;-52
2021/10/04 11:03:10;;;;;;;10.05;9.05;;;;;;;14.35;96.75;100709.00;5062484;28;20085;-52
2021/10/04 11:05:39;;;;;;;9.32;8.30;;;;;;;14.42;94.12;100720.19;5062983;28;20413;-53
2021/10/04 11:08:16;;;;;;;8.98;8.18;;;;;;;14.51;92.59;100721.47;5055085;28;20079;-53
2021/10/04 11:10:51;;;;;;;9.23;8.32;;;;;;;14.65;91.77;100718.84;5053896;28;20063;-52
2021/10/04 11:13:28;;;;;;;8.20;7.40;;;;;;;14.87;87.49;100715.78;5061331;28;20347;-52
2021/10/04 11:15:57;;;;;;;373.33;45.53;;;;;;;14.97;87.39;100717.81;5063401;28;20045;-53
2021/10/04 11:18:34;;;;;;;638.42;69.80;;;;;;;15.02;85.00;100713.06;5061233;28;20059;-53
2021/10/04 11:21:03;;;;;;;183.23;22.30;;;;;;;15.04;84.93;100708.50;5062285;28;20052;-53